sensor_id;sensor_type;location;lat;lon;timestamp;temperature;humidity
20773;DHT22;10546;50.674;4.616;2023-04-29T05:10:35;10.90;99.90
20773;DHT22;10546;50.674;4.616;2023-04-29T05:13:01;11.00;99.90
20773;DHT22;10546;50.674;4.616;2023-04-29T05:15:27;10.90;99.90
20773;DHT22;10546;50.674;4.616;2023-04-29T05:17:52;10.90;99.90
20773;DHT22;10546;50.674;4.616;2023-04-29T05:20:18;10.90;99.90
20773;DHT22;10546;50.674;4.616;2023-04-29T05:22:44;10.80;99.90
20773;DHT22;10546;50.674;4.616;2023-04-29T05:25:10;10.80;99.90
20773;DHT22;10546;50.674;4.616;2023-04-29T05:27:36;10.80;99.90
20773;DHT22;10546;50.674;4.616;2023-04-29T05:30:02;10.90;99.90
20773;DHT22;10546;50.674;4.616;2023-04-29T05:32:28;10.90;99.90
20773;DHT22;10546;50.674;4.616;2023-04-29T05:34:53;10.90;99.90
20773;DHT22;10546;50.674;4.616;2023-04-29T05:37:19;10.80;99.90
20773;DHT22;10546;50.674;4.616;2023-04-29T05:39:45;10.80;99.90
20773;DHT22;10546;50.674;4.616;2023-04-29T05:42:10;10.70;99.90
20773;DHT22;10546;50.674;4.616;2023-04-29T05:44:36;10.60;99.90
20773;DHT22;10546;50.674;4.616;2023-04-29T05:47:02;10.50;99.90
20773;DHT22;10546;50.674;4.616;2023-04-29T05:49:28;10.40;99.90
20773;DHT22;10546;50.674;4.616;2023-04-29T05:51:53;10.40;99.90
20773;DHT22;10546;50.674;4.616;2023-04-29T05:54:19;10.30;99.90
20773;DHT22;10546;50.674;4.616;2023-04-29T05:56:45;10.20;99.90
20773;DHT22;10546;50.674;4.616;2023-04-29T05:59:10;10.30;99.90
20773;DHT22;10546;50.674;4.616;2023-04-29T06:01:36;10.40;99.90
20773;DHT22;10546;50.674;4.616;2023-04-29T06:04:03;10.50;99.90
20773;DHT22;10546;50.674;4.616;2023-04-29T06:06:29;10.50;99.90
20773;DHT22;10546;50.674;4.616;2023-04-29T06:08:54;10.50;99.90
20773;DHT22;10546;50.674;4.616;2023-04-29T06:11:20;10.50;99.90
20773;DHT22;10546;50.674;4.616;2023-04-29T06:13:46;10.50;99.90
20773;DHT22;10546;50.674;4.616;2023-04-29T06:16:12;10.40;99.90
20773;DHT22;10546;50.674;4.616;2023-04-29T06:18:38;10.30;99.90
20773;DHT22;10546;50.674;4.616;2023-04-29T06:21:03;10.10;99.90
20773;DHT22;10546;50.674;4.616;2023-04-29T06:23:29;10.20;99.90
20773;DHT22;10546;50.674;4.616;2023-04-29T06:25:57;10.20;99.90
20773;DHT22;10546;50.674;4.616;2023-04-29T06:28:23;10.20;99.90
20773;DHT22;10546;50.674;4.616;2023-04-29T06:30:48;10.10;99.90
20773;DHT22;10546;50.674;4.616;2023-04-29T06:33:14;10.10;99.90
20773;DHT22;10546;50.674;4.616;2023-04-29T06:35:40;10.10;99.90
20773;DHT22;10546;50.674;4.616;2023-04-29T06:38:06;10.10;99.90
20773;DHT22;10546;50.674;4.616;2023-04-29T06:40:35;10.10;99.90
20773;DHT22;10546;50.674;4.616;2023-04-29T06:43:00;10.10;99.90
20773;DHT22;10546;50.674;4.616;2023-04-29T06:45:26;10.20;99.90
20773;DHT22;10546;50.674;4.616;2023-04-29T06:47:52;10.10;99.90
20773;DHT22;10546;50.674;4.616;2023-04-29T06:50:18;10.10;99.90
20773;DHT22;10546;50.674;4.616;2023-04-29T06:52:44;10.20;99.90
20773;DHT22;10546;50.674;4.616;2023-04-29T06:55:10;10.20;99.90
20773;DHT22;10546;50.674;4.616;2023-04-29T06:57:36;10.30;99.90
20773;DHT22;10546;50.674;4.616;2023-04-29T07:00:03;10.40;99.90
20773;DHT22;10546;50.674;4.616;2023-04-29T07:02:29;10.30;99.90
20773;DHT22;10546;50.674;4.616;2023-04-29T07:04:54;10.40;99.90
20773;DHT22;10546;50.674;4.616;2023-04-29T07:07:20;10.30;99.90
20773;DHT22;10546;50.674;4.616;2023-04-29T07:09:45;10.50;99.90
20773;DHT22;10546;50.674;4.616;2023-04-29T07:12:11;10.50;99.90
20773;DHT22;10546;50.674;4.616;2023-04-29T07:14:37;10.60;99.90
20773;DHT22;10546;50.674;4.616;2023-04-29T07:17:02;10.70;99.90
20773;DHT22;10546;50.674;4.616;2023-04-29T07:19:29;10.80;99.90
20773;DHT22;10546;50.674;4.616;2023-04-29T07:21:55;10.60;99.90
20773;DHT22;10546;50.674;4.616;2023-04-29T07:24:20;10.50;99.90
20773;DHT22;10546;50.674;4.616;2023-04-29T07:26:48;10.50;99.90
20773;DHT22;10546;50.674;4.616;2023-04-29T07:29:14;10.50;99.90
20773;DHT22;10546;50.674;4.616;2023-04-29T07:31:39;10.40;99.90
20773;DHT22;10546;50.674;4.616;2023-04-29T07:34:05;10.30;99.90
20773;DHT22;10546;50.674;4.616;2023-04-29T07:36:31;10.20;99.90
20773;DHT22;10546;50.674;4.616;2023-04-29T07:38:57;10.30;99.90
20773;DHT22;10546;50.674;4.616;2023-04-29T07:41:23;10.40;99.90
20773;DHT22;10546;50.674;4.616;2023-04-29T07:43:49;10.40;99.90
20773;DHT22;10546;50.674;4.616;2023-04-29T07:46:14;10.30;99.90
20773;DHT22;10546;50.674;4.616;2023-04-29T07:48:42;10.10;99.90
20773;DHT22;10546;50.674;4.616;2023-04-29T07:51:12;10.20;99.90
20773;DHT22;10546;50.674;4.616;2023-04-29T07:53:39;10.20;99.90
20773;DHT22;10546;50.674;4.616;2023-04-29T07:56:06;10.30;99.90
20773;DHT22;10546;50.674;4.616;2023-04-29T07:58:32;10.40;99.90
20773;DHT22;10546;50.674;4.616;2023-04-29T08:01:05;10.50;99.90
20773;DHT22;10546;50.674;4.616;2023-04-29T08:03:31;10.60;99.90
20773;DHT22;10546;50.674;4.616;2023-04-29T08:06:00;10.60;99.90
20773;DHT22;10546;50.674;4.616;2023-04-29T08:08:26;10.40;99.90
20773;DHT22;10546;50.674;4.616;2023-04-29T08:10:52;10.30;99.90
20773;DHT22;10546;50.674;4.616;2023-04-29T08:13:17;10.30;99.90
20773;DHT22;10546;50.674;4.616;2023-04-29T08:15:43;10.10;99.90
20773;DHT22;10546;50.674;4.616;2023-04-29T08:18:09;10.10;99.90
20773;DHT22;10546;50.674;4.616;2023-04-29T08:20:34;10.10;99.90
20773;DHT22;10546;50.674;4.616;2023-04-29T08:23:00;10.00;99.90
20773;DHT22;10546;50.674;4.616;2023-04-29T08:25:26;10.00;99.90
20773;DHT22;10546;50.674;4.616;2023-04-29T08:27:52;10.10;99.90
20773;DHT22;10546;50.674;4.616;2023-04-29T08:30:18;10.30;99.90
20773;DHT22;10546;50.674;4.616;2023-04-29T08:32:44;10.30;99.90
20773;DHT22;10546;50.674;4.616;2023-04-29T08:35:09;10.50;99.90
20773;DHT22;10546;50.674;4.616;2023-04-29T08:37:35;10.40;99.90
20773;DHT22;10546;50.674;4.616;2023-04-29T08:40:02;10.30;99.90
20773;DHT22;10546;50.674;4.616;2023-04-29T08:42:37;10.50;99.90
20773;DHT22;10546;50.674;4.616;2023-04-29T08:45:04;10.50;99.90
20773;DHT22;10546;50.674;4.616;2023-04-29T08:47:33;10.50;99.90
20773;DHT22;10546;50.674;4.616;2023-04-29T08:50:04;10.70;99.90
20773;DHT22;10546;50.674;4.616;2023-04-29T08:52:33;10.90;99.90
20773;DHT22;10546;50.674;4.616;2023-04-29T08:55:00;10.80;99.90
20773;DHT22;10546;50.674;4.616;2023-04-29T08:57:30;10.90;99.90
20773;DHT22;10546;50.674;4.616;2023-04-29T09:00:07;11.10;99.90
20773;DHT22;10546;50.674;4.616;2023-04-29T09:02:40;11.40;99.90
20773;DHT22;10546;50.674;4.616;2023-04-29T09:05:10;11.60;99.90
20773;DHT22;10546;50.674;4.616;2023-04-29T09:07:40;11.80;99.90
20773;DHT22;10546;50.674;4.616;2023-04-29T09:10:07;11.80;99.90
20773;DHT22;10546;50.674;4.616;2023-04-29T09:12:33;11.80;99.90
20773;DHT22;10546;50.674;4.616;2023-04-29T09:15:00;11.90;99.90
20773;DHT22;10546;50.674;4.616;2023-04-29T09:17:46;11.70;99.90
20773;DHT22;10546;50.674;4.616;2023-04-29T09:22:58;11.50;99.90
20773;DHT22;10546;50.674;4.616;2023-04-29T09:25:24;11.70;99.90
20773;DHT22;10546;50.674;4.616;2023-04-29T09:27:51;11.80;99.90
20773;DHT22;10546;50.674;4.616;2023-04-29T09:30:17;11.80;99.90
20773;DHT22;10546;50.674;4.616;2023-04-29T09:32:44;11.90;99.90
20773;DHT22;10546;50.674;4.616;2023-04-29T09:35:23;11.90;99.90
20773;DHT22;10546;50.674;4.616;2023-04-29T09:37:49;11.80;99.90
20773;DHT22;10546;50.674;4.616;2023-04-29T09:40:36;11.70;99.90
20773;DHT22;10546;50.674;4.616;2023-04-29T09:43:02;11.50;99.90
20773;DHT22;10546;50.674;4.616;2023-04-29T09:45:39;11.50;99.90
20773;DHT22;10546;50.674;4.616;2023-04-29T09:48:07;11.40;99.90
20773;DHT22;10546;50.674;4.616;2023-04-29T09:50:33;11.50;99.90
20773;DHT22;10546;50.674;4.616;2023-04-29T09:53:03;11.60;99.90
20773;DHT22;10546;50.674;4.616;2023-04-29T09:55:29;11.70;99.90
20773;DHT22;10546;50.674;4.616;2023-04-29T09:57:55;11.60;99.90
20773;DHT22;10546;50.674;4.616;2023-04-29T10:00:21;11.50;99.90
20773;DHT22;10546;50.674;4.616;2023-04-29T10:02:47;11.50;99.90
20773;DHT22;10546;50.674;4.616;2023-04-29T10:05:14;11.60;99.90
20773;DHT22;10546;50.674;4.616;2023-04-29T10:07:41;11.60;99.90
20773;DHT22;10546;50.674;4.616;2023-04-29T10:10:08;11.90;99.90
20773;DHT22;10546;50.674;4.616;2023-04-29T10:12:36;12.10;99.90
20773;DHT22;10546;50.674;4.616;2023-04-29T10:15:22;12.60;99.90
20773;DHT22;10546;50.674;4.616;2023-04-29T10:18:03;13.10;99.90
20773;DHT22;10546;50.674;4.616;2023-04-29T10:20:34;13.40;99.90
20773;DHT22;10546;50.674;4.616;2023-04-29T10:23:01;13.70;99.90
20773;DHT22;10546;50.674;4.616;2023-04-29T10:25:28;13.80;99.90
20773;DHT22;10546;50.674;4.616;2023-04-29T10:27:54;14.00;99.90
20773;DHT22;10546;50.674;4.616;2023-04-29T10:30:21;14.30;99.90
20773;DHT22;10546;50.674;4.616;2023-04-29T10:32:48;14.60;99.90
20773;DHT22;10546;50.674;4.616;2023-04-29T10:35:15;14.60;99.90
20773;DHT22;10546;50.674;4.616;2023-04-29T10:37:44;14.70;99.90
20773;DHT22;10546;50.674;4.616;2023-04-29T10:42:51;14.10;99.90
20773;DHT22;10546;50.674;4.616;2023-04-29T10:45:28;13.80;99.90
20773;DHT22;10546;50.674;4.616;2023-04-29T10:50:32;13.80;99.90
20773;DHT22;10546;50.674;4.616;2023-04-29T10:53:01;13.80;99.90
20773;DHT22;10546;50.674;4.616;2023-04-29T10:55:27;13.70;99.90
20773;DHT22;10546;50.674;4.616;2023-04-29T10:57:53;13.60;99.90
20773;DHT22;10546;50.674;4.616;2023-04-29T11:00:32;13.50;99.90
20773;DHT22;10546;50.674;4.616;2023-04-29T11:03:00;13.10;99.90
20773;DHT22;10546;50.674;4.616;2023-04-29T11:05:33;12.90;99.90
20773;DHT22;10546;50.674;4.616;2023-04-29T11:08:09;13.10;99.90
20773;DHT22;10546;50.674;4.616;2023-04-29T11:10:39;13.40;99.90
20773;DHT22;10546;50.674;4.616;2023-04-29T11:13:27;13.80;99.90
20773;DHT22;10546;50.674;4.616;2023-04-29T11:16:04;14.20;99.90
20773;DHT22;10546;50.674;4.616;2023-04-29T11:18:30;14.40;99.90
20773;DHT22;10546;50.674;4.616;2023-04-29T11:23:34;14.50;99.90
20773;DHT22;10546;50.674;4.616;2023-04-29T11:26:01;14.70;99.90
20773;DHT22;10546;50.674;4.616;2023-04-29T11:28:27;14.80;99.90
20773;DHT22;10546;50.674;4.616;2023-04-29T11:30:56;14.70;99.90
20773;DHT22;10546;50.674;4.616;2023-04-29T11:33:22;14.60;99.90
20773;DHT22;10546;50.674;4.616;2023-04-29T11:35:48;14.50;99.90
20773;DHT22;10546;50.674;4.616;2023-04-29T11:38:14;14.40;99.90
20773;DHT22;10546;50.674;4.616;2023-04-29T11:40:49;14.40;99.90
20773;DHT22;10546;50.674;4.616;2023-04-29T11:43:19;14.50;99.90
20773;DHT22;10546;50.674;4.616;2023-04-29T11:45:45;14.40;99.90
20773;DHT22;10546;50.674;4.616;2023-04-29T11:48:20;14.00;99.90
20773;DHT22;10546;50.674;4.616;2023-04-29T11:50:48;14.10;99.90
20773;DHT22;10546;50.674;4.616;2023-04-29T11:53:14;14.40;99.90
20773;DHT22;10546;50.674;4.616;2023-04-29T11:55:44;14.50;99.90
20773;DHT22;10546;50.674;4.616;2023-04-29T11:58:10;14.90;99.90
20773;DHT22;10546;50.674;4.616;2023-04-29T12:00:36;15.00;99.90
20773;DHT22;10546;50.674;4.616;2023-04-29T12:03:12;15.30;99.90
20773;DHT22;10546;50.674;4.616;2023-04-29T12:05:38;15.50;99.90
20773;DHT22;10546;50.674;4.616;2023-04-29T12:08:06;15.60;99.90
20773;DHT22;10546;50.674;4.616;2023-04-29T12:10:35;15.60;99.90
20773;DHT22;10546;50.674;4.616;2023-04-29T12:13:02;15.80;99.90
20773;DHT22;10546;50.674;4.616;2023-04-29T12:15:29;15.60;99.90
20773;DHT22;10546;50.674;4.616;2023-04-29T12:17:54;16.00;99.90
20773;DHT22;10546;50.674;4.616;2023-04-29T12:20:20;16.20;99.90
20773;DHT22;10546;50.674;4.616;2023-04-29T12:22:46;16.20;99.90
20773;DHT22;10546;50.674;4.616;2023-04-29T12:25:12;16.30;99.90
20773;DHT22;10546;50.674;4.616;2023-04-29T12:27:39;16.50;99.90
20773;DHT22;10546;50.674;4.616;2023-04-29T12:30:10;16.50;99.90
20773;DHT22;10546;50.674;4.616;2023-04-29T12:32:35;16.30;99.90
20773;DHT22;10546;50.674;4.616;2023-04-29T12:35:01;16.00;99.90
20773;DHT22;10546;50.674;4.616;2023-04-29T12:37:27;16.00;99.90
20773;DHT22;10546;50.674;4.616;2023-04-29T12:39:56;16.30;99.90
20773;DHT22;10546;50.674;4.616;2023-04-29T12:42:22;16.30;99.90
20773;DHT22;10546;50.674;4.616;2023-04-29T12:44:48;16.30;99.90
20773;DHT22;10546;50.674;4.616;2023-04-29T12:47:14;16.40;99.90
20773;DHT22;10546;50.674;4.616;2023-04-29T12:49:44;16.60;99.90
20773;DHT22;10546;50.674;4.616;2023-04-29T12:52:10;16.10;99.90
20773;DHT22;10546;50.674;4.616;2023-04-29T12:54:37;16.10;99.90
20773;DHT22;10546;50.674;4.616;2023-04-29T12:57:05;15.70;99.90
20773;DHT22;10546;50.674;4.616;2023-04-29T12:59:31;15.70;99.90
20773;DHT22;10546;50.674;4.616;2023-04-29T13:01:56;15.70;99.90
20773;DHT22;10546;50.674;4.616;2023-04-29T13:04:22;15.60;99.90
20773;DHT22;10546;50.674;4.616;2023-04-29T13:06:48;15.60;99.90
20773;DHT22;10546;50.674;4.616;2023-04-29T13:09:13;15.80;99.90
20773;DHT22;10546;50.674;4.616;2023-04-29T13:11:39;16.00;99.90
20773;DHT22;10546;50.674;4.616;2023-04-29T13:14:05;16.10;99.90
20773;DHT22;10546;50.674;4.616;2023-04-29T13:16:34;16.30;99.90
20773;DHT22;10546;50.674;4.616;2023-04-29T13:19:00;16.50;99.90
20773;DHT22;10546;50.674;4.616;2023-04-29T13:21:26;16.60;99.90
20773;DHT22;10546;50.674;4.616;2023-04-29T13:23:55;16.50;99.90
20773;DHT22;10546;50.674;4.616;2023-04-29T13:26:20;16.80;99.90
20773;DHT22;10546;50.674;4.616;2023-04-29T13:28:48;16.90;99.90
20773;DHT22;10546;50.674;4.616;2023-04-29T13:31:13;17.00;99.90
20773;DHT22;10546;50.674;4.616;2023-04-29T13:33:39;17.10;99.90
20773;DHT22;10546;50.674;4.616;2023-04-29T13:36:05;17.30;99.90
20773;DHT22;10546;50.674;4.616;2023-04-29T13:38:30;17.60;99.90
20773;DHT22;10546;50.674;4.616;2023-04-29T13:40:56;17.80;99.90
20773;DHT22;10546;50.674;4.616;2023-04-29T13:43:22;17.70;99.90
20773;DHT22;10546;50.674;4.616;2023-04-29T13:45:48;17.30;99.90
20773;DHT22;10546;50.674;4.616;2023-04-29T13:48:15;17.00;99.90
20773;DHT22;10546;50.674;4.616;2023-04-29T13:50:40;17.00;99.90
20773;DHT22;10546;50.674;4.616;2023-04-29T13:53:06;16.60;99.90
20773;DHT22;10546;50.674;4.616;2023-04-29T13:55:32;16.30;99.90
20773;DHT22;10546;50.674;4.616;2023-04-29T13:58:01;16.10;99.90
20773;DHT22;10546;50.674;4.616;2023-04-29T14:00:27;16.10;99.90
20773;DHT22;10546;50.674;4.616;2023-04-29T14:02:54;16.40;99.90
20773;DHT22;10546;50.674;4.616;2023-04-29T14:05:19;16.10;99.90
20773;DHT22;10546;50.674;4.616;2023-04-29T14:07:45;16.30;99.90
20773;DHT22;10546;50.674;4.616;2023-04-29T14:10:11;16.40;99.90
20773;DHT22;10546;50.674;4.616;2023-04-29T14:12:36;16.70;99.90
20773;DHT22;10546;50.674;4.616;2023-04-29T14:15:02;16.50;99.90
20773;DHT22;10546;50.674;4.616;2023-04-29T14:17:28;16.40;99.90
20773;DHT22;10546;50.674;4.616;2023-04-29T14:19:54;16.40;99.90
20773;DHT22;10546;50.674;4.616;2023-04-29T14:22:19;16.60;99.90
20773;DHT22;10546;50.674;4.616;2023-04-29T14:24:45;16.60;99.90
20773;DHT22;10546;50.674;4.616;2023-04-29T14:27:11;16.20;99.90
20773;DHT22;10546;50.674;4.616;2023-04-29T14:29:37;16.20;99.90
20773;DHT22;10546;50.674;4.616;2023-04-29T14:32:03;16.40;99.90
20773;DHT22;10546;50.674;4.616;2023-04-29T14:34:28;16.40;99.90
20773;DHT22;10546;50.674;4.616;2023-04-29T14:36:54;16.10;99.90
20773;DHT22;10546;50.674;4.616;2023-04-29T14:39:23;15.80;99.90
20773;DHT22;10546;50.674;4.616;2023-04-29T14:41:49;15.90;99.90
20773;DHT22;10546;50.674;4.616;2023-04-29T14:44:14;16.10;99.90
20773;DHT22;10546;50.674;4.616;2023-04-29T14:46:40;16.10;99.90
20773;DHT22;10546;50.674;4.616;2023-04-29T14:49:06;16.10;99.90
20773;DHT22;10546;50.674;4.616;2023-04-29T14:51:32;16.20;99.90
20773;DHT22;10546;50.674;4.616;2023-04-29T14:53:57;16.20;99.90
20773;DHT22;10546;50.674;4.616;2023-04-29T14:56:23;16.10;99.90
20773;DHT22;10546;50.674;4.616;2023-04-29T14:58:49;16.30;99.90
20773;DHT22;10546;50.674;4.616;2023-04-29T15:01:14;16.40;99.90
20773;DHT22;10546;50.674;4.616;2023-04-29T15:03:40;16.50;99.90
20773;DHT22;10546;50.674;4.616;2023-04-29T15:06:06;16.30;99.90
20773;DHT22;10546;50.674;4.616;2023-04-29T15:08:32;16.40;99.90
20773;DHT22;10546;50.674;4.616;2023-04-29T15:10:58;16.40;99.90
20773;DHT22;10546;50.674;4.616;2023-04-29T15:13:23;16.40;99.90
20773;DHT22;10546;50.674;4.616;2023-04-29T15:15:49;16.30;99.90
20773;DHT22;10546;50.674;4.616;2023-04-29T15:18:15;16.50;99.90
20773;DHT22;10546;50.674;4.616;2023-04-29T15:20:40;16.50;99.90
20773;DHT22;10546;50.674;4.616;2023-04-29T15:23:06;16.50;99.90
20773;DHT22;10546;50.674;4.616;2023-04-29T15:25:33;16.60;99.90
20773;DHT22;10546;50.674;4.616;2023-04-29T15:28:00;16.40;99.90
20773;DHT22;10546;50.674;4.616;2023-04-29T15:30:26;16.50;99.90
20773;DHT22;10546;50.674;4.616;2023-04-29T15:32:52;16.40;99.90
20773;DHT22;10546;50.674;4.616;2023-04-29T15:35:18;16.60;99.90
20773;DHT22;10546;50.674;4.616;2023-04-29T15:37:43;16.60;99.90
20773;DHT22;10546;50.674;4.616;2023-04-29T15:40:09;16.90;99.90
20773;DHT22;10546;50.674;4.616;2023-04-29T15:42:35;16.70;99.90
20773;DHT22;10546;50.674;4.616;2023-04-29T15:45:00;16.80;99.90
20773;DHT22;10546;50.674;4.616;2023-04-29T15:47:26;16.60;99.90
20773;DHT22;10546;50.674;4.616;2023-04-29T15:49:52;16.40;99.90
20773;DHT22;10546;50.674;4.616;2023-04-29T15:52:23;16.30;99.90
20773;DHT22;10546;50.674;4.616;2023-04-29T15:54:49;16.10;99.90
20773;DHT22;10546;50.674;4.616;2023-04-29T15:57:15;16.00;99.90
20773;DHT22;10546;50.674;4.616;2023-04-29T15:59:42;16.00;99.90
20773;DHT22;10546;50.674;4.616;2023-04-29T16:02:08;16.10;99.90
20773;DHT22;10546;50.674;4.616;2023-04-29T16:04:37;16.20;99.90
20773;DHT22;10546;50.674;4.616;2023-04-29T16:07:03;16.40;99.90
20773;DHT22;10546;50.674;4.616;2023-04-29T16:09:33;16.30;99.90
20773;DHT22;10546;50.674;4.616;2023-04-29T16:11:59;16.20;99.90
20773;DHT22;10546;50.674;4.616;2023-04-29T16:14:27;16.20;99.90
20773;DHT22;10546;50.674;4.616;2023-04-29T16:16:53;16.10;99.90
20773;DHT22;10546;50.674;4.616;2023-04-29T16:19:19;15.90;99.90
20773;DHT22;10546;50.674;4.616;2023-04-29T16:21:45;16.00;99.90
20773;DHT22;10546;50.674;4.616;2023-04-29T16:24:14;16.00;99.90
20773;DHT22;10546;50.674;4.616;2023-04-29T16:26:40;15.90;99.90
20773;DHT22;10546;50.674;4.616;2023-04-29T16:29:09;16.10;99.90
20773;DHT22;10546;50.674;4.616;2023-04-29T16:31:37;16.20;99.90
20773;DHT22;10546;50.674;4.616;2023-04-29T16:34:03;16.10;99.90
20773;DHT22;10546;50.674;4.616;2023-04-29T16:36:28;16.10;99.90
20773;DHT22;10546;50.674;4.616;2023-04-29T16:38:54;16.00;99.90
20773;DHT22;10546;50.674;4.616;2023-04-29T16:41:20;15.90;99.90
20773;DHT22;10546;50.674;4.616;2023-04-29T16:43:50;15.80;99.90
20773;DHT22;10546;50.674;4.616;2023-04-29T16:46:17;15.70;99.90
20773;DHT22;10546;50.674;4.616;2023-04-29T16:48:43;15.70;99.90
20773;DHT22;10546;50.674;4.616;2023-04-29T16:51:09;15.60;99.90
20773;DHT22;10546;50.674;4.616;2023-04-29T16:53:34;15.60;99.90
20773;DHT22;10546;50.674;4.616;2023-04-29T16:56:00;15.50;99.90
20773;DHT22;10546;50.674;4.616;2023-04-29T16:58:26;15.50;99.90
20773;DHT22;10546;50.674;4.616;2023-04-29T17:00:53;15.60;99.90
20773;DHT22;10546;50.674;4.616;2023-04-29T17:03:19;15.50;99.90
20773;DHT22;10546;50.674;4.616;2023-04-29T17:05:45;15.50;99.90
20773;DHT22;10546;50.674;4.616;2023-04-29T17:08:11;15.60;99.90
20773;DHT22;10546;50.674;4.616;2023-04-29T17:10:39;15.60;99.90
20773;DHT22;10546;50.674;4.616;2023-04-29T17:13:05;15.70;99.90
20773;DHT22;10546;50.674;4.616;2023-04-29T17:15:31;15.60;99.90
20773;DHT22;10546;50.674;4.616;2023-04-29T17:17:57;15.60;99.90
20773;DHT22;10546;50.674;4.616;2023-04-29T17:20:22;15.80;99.90
20773;DHT22;10546;50.674;4.616;2023-04-29T17:22:48;15.70;99.90
20773;DHT22;10546;50.674;4.616;2023-04-29T17:25:14;15.30;99.90
20773;DHT22;10546;50.674;4.616;2023-04-29T17:27:42;15.20;99.90
20773;DHT22;10546;50.674;4.616;2023-04-29T17:30:08;15.20;99.90
20773;DHT22;10546;50.674;4.616;2023-04-29T17:32:34;15.40;99.90
20773;DHT22;10546;50.674;4.616;2023-04-29T17:35:07;15.30;99.90
20773;DHT22;10546;50.674;4.616;2023-04-29T17:37:33;15.30;99.90
20773;DHT22;10546;50.674;4.616;2023-04-29T17:39:59;15.30;99.90
20773;DHT22;10546;50.674;4.616;2023-04-29T17:42:24;15.30;99.90
20773;DHT22;10546;50.674;4.616;2023-04-29T17:44:50;15.10;99.90
20773;DHT22;10546;50.674;4.616;2023-04-29T17:47:16;15.10;99.90
20773;DHT22;10546;50.674;4.616;2023-04-29T17:49:43;14.90;99.90
20773;DHT22;10546;50.674;4.616;2023-04-29T17:52:09;15.00;99.90
20773;DHT22;10546;50.674;4.616;2023-04-29T17:54:38;15.00;99.90
20773;DHT22;10546;50.674;4.616;2023-04-29T17:57:03;14.90;99.90
20773;DHT22;10546;50.674;4.616;2023-04-29T17:59:29;14.90;99.90
20773;DHT22;10546;50.674;4.616;2023-04-29T18:01:55;14.90;99.90
20773;DHT22;10546;50.674;4.616;2023-04-29T18:04:21;15.00;99.90
20773;DHT22;10546;50.674;4.616;2023-04-29T18:06:46;15.00;99.90
20773;DHT22;10546;50.674;4.616;2023-04-29T18:09:12;14.90;99.90
20773;DHT22;10546;50.674;4.616;2023-04-29T18:11:39;14.90;99.90
20773;DHT22;10546;50.674;4.616;2023-04-29T18:14:05;14.70;99.90
20773;DHT22;10546;50.674;4.616;2023-04-29T18:16:31;14.70;99.90
20773;DHT22;10546;50.674;4.616;2023-04-29T18:18:56;14.80;99.90
20773;DHT22;10546;50.674;4.616;2023-04-29T18:21:23;14.80;99.90
20773;DHT22;10546;50.674;4.616;2023-04-29T18:23:49;14.80;99.90
20773;DHT22;10546;50.674;4.616;2023-04-29T18:26:15;15.00;99.90
20773;DHT22;10546;50.674;4.616;2023-04-29T18:28:41;15.10;99.90
20773;DHT22;10546;50.674;4.616;2023-04-29T18:31:08;15.00;99.90
20773;DHT22;10546;50.674;4.616;2023-04-29T18:33:34;14.90;99.90
20773;DHT22;10546;50.674;4.616;2023-04-29T18:36:01;14.90;99.90
20773;DHT22;10546;50.674;4.616;2023-04-29T18:38:27;15.00;99.90
20773;DHT22;10546;50.674;4.616;2023-04-29T18:40:53;15.10;99.90
20773;DHT22;10546;50.674;4.616;2023-04-29T18:43:18;15.10;99.90
20773;DHT22;10546;50.674;4.616;2023-04-29T18:45:49;15.20;99.90
20773;DHT22;10546;50.674;4.616;2023-04-29T18:48:15;15.10;99.90
20773;DHT22;10546;50.674;4.616;2023-04-29T18:50:41;14.90;99.90
20773;DHT22;10546;50.674;4.616;2023-04-29T18:53:07;14.90;99.90
20773;DHT22;10546;50.674;4.616;2023-04-29T18:55:33;14.80;99.90
20773;DHT22;10546;50.674;4.616;2023-04-29T18:57:59;14.70;99.90
20773;DHT22;10546;50.674;4.616;2023-04-29T19:00:26;14.70;99.90
20773;DHT22;10546;50.674;4.616;2023-04-29T19:02:52;14.60;99.90
20773;DHT22;10546;50.674;4.616;2023-04-29T19:05:18;14.50;99.90
20773;DHT22;10546;50.674;4.616;2023-04-29T19:07:44;14.50;99.90
20773;DHT22;10546;50.674;4.616;2023-04-29T19:10:09;14.40;99.90
20773;DHT22;10546;50.674;4.616;2023-04-29T19:12:38;14.20;99.90
20773;DHT22;10546;50.674;4.616;2023-04-29T19:15:04;14.10;99.90
20773;DHT22;10546;50.674;4.616;2023-04-29T19:17:30;14.00;99.90
20773;DHT22;10546;50.674;4.616;2023-04-29T19:19:56;13.90;99.90
20773;DHT22;10546;50.674;4.616;2023-04-29T19:22:22;13.90;99.90
20773;DHT22;10546;50.674;4.616;2023-04-29T19:24:47;13.80;99.90
20773;DHT22;10546;50.674;4.616;2023-04-29T19:27:13;13.70;99.90
20773;DHT22;10546;50.674;4.616;2023-04-29T19:29:39;13.60;99.90
20773;DHT22;10546;50.674;4.616;2023-04-29T19:32:05;13.30;99.90
20773;DHT22;10546;50.674;4.616;2023-04-29T19:34:31;13.20;99.90
20773;DHT22;10546;50.674;4.616;2023-04-29T19:36:56;13.10;99.90
20773;DHT22;10546;50.674;4.616;2023-04-29T19:39:22;13.00;99.90
20773;DHT22;10546;50.674;4.616;2023-04-29T19:41:47;12.90;99.90
20773;DHT22;10546;50.674;4.616;2023-04-29T19:44:13;13.00;99.90
20773;DHT22;10546;50.674;4.616;2023-04-29T19:46:39;13.00;99.90
20773;DHT22;10546;50.674;4.616;2023-04-29T19:49:05;12.90;99.90
20773;DHT22;10546;50.674;4.616;2023-04-29T19:51:31;12.70;99.90
20773;DHT22;10546;50.674;4.616;2023-04-29T19:53:57;12.60;99.90
20773;DHT22;10546;50.674;4.616;2023-04-29T19:56:26;12.60;99.90
20773;DHT22;10546;50.674;4.616;2023-04-29T19:58:52;12.50;99.90
20773;DHT22;10546;50.674;4.616;2023-04-29T20:01:17;12.40;99.90
20773;DHT22;10546;50.674;4.616;2023-04-29T20:03:43;12.40;99.90
20773;DHT22;10546;50.674;4.616;2023-04-29T20:06:09;12.30;99.90
20773;DHT22;10546;50.674;4.616;2023-04-29T20:08:35;12.20;99.90
20773;DHT22;10546;50.674;4.616;2023-04-29T20:11:03;12.20;99.90
20773;DHT22;10546;50.674;4.616;2023-04-29T20:13:29;12.10;99.90
20773;DHT22;10546;50.674;4.616;2023-04-29T20:15:55;12.00;99.90
20773;DHT22;10546;50.674;4.616;2023-04-29T20:18:21;12.00;99.90
20773;DHT22;10546;50.674;4.616;2023-04-29T20:20:47;12.00;99.90
20773;DHT22;10546;50.674;4.616;2023-04-29T20:23:12;12.00;99.90
20773;DHT22;10546;50.674;4.616;2023-04-29T20:25:38;11.90;99.90
20773;DHT22;10546;50.674;4.616;2023-04-29T20:28:05;11.80;99.90
20773;DHT22;10546;50.674;4.616;2023-04-29T20:30:34;11.70;99.90
20773;DHT22;10546;50.674;4.616;2023-04-29T20:32:59;11.70;99.90
20773;DHT22;10546;50.674;4.616;2023-04-29T20:35:25;11.70;99.90
20773;DHT22;10546;50.674;4.616;2023-04-29T20:37:51;11.70;99.90
20773;DHT22;10546;50.674;4.616;2023-04-29T20:40:17;11.60;99.90
20773;DHT22;10546;50.674;4.616;2023-04-29T20:42:43;11.60;99.90
20773;DHT22;10546;50.674;4.616;2023-04-29T20:45:09;11.60;99.90
20773;DHT22;10546;50.674;4.616;2023-04-29T20:47:36;11.50;99.90